Time;durP1;ratioP1;P1;durP2;ratioP2;P2;SDS_P1;SDS_P2;PMS_P1;PMS_P2;Temp;Humidity;BMP_temperature;BMP_pressure;BME280_temperature;BME280_humidity;BME280_pressure;Samples;Min_cycle;Max_cycle;Signal;HPM_P1;HPM_P2
2022/08/06 00:00:47;;;;;;;7.32;1.70;;;;;;;14.35;72.20;102547.00;5003235;28;20161;-74
2022/08/06 00:03:12;;;;;;;11.18;1.27;;;;;;;14.30;72.54;102544.81;4997372;28;20076;-74
2022/08/06 00:05:38;;;;;;;5.78;1.30;;;;;;;14.31;72.69;102545.66;5013911;28;20033;-74
2022/08/06 00:08:03;;;;;;;9.45;1.33;;;;;;;14.30;72.99;102543.94;4990985;28;20077;-74
2022/08/06 00:10:29;;;;;;;7.45;1.60;;;;;;;14.22;73.59;102542.91;5013080;28;20060;-74
2022/08/06 00:12:54;;;;;;;7.28;1.30;;;;;;;14.19;74.41;102554.09;5010795;28;20080;-74
2022/08/06 00:15:20;;;;;;;4.32;1.30;;;;;;;14.12;74.68;102546.78;4979699;28;20508;-75
2022/08/06 00:17:46;;;;;;;5.45;1.30;;;;;;;14.12;74.99;102552.19;5013018;28;20042;-75
2022/08/06 00:20:14;;;;;;;5.97;1.30;;;;;;;14.11;74.77;102550.47;5010009;28;20034;-75
2022/08/06 00:22:39;;;;;;;7.13;1.40;;;;;;;14.08;75.21;102548.94;4980364;28;20491;-74
2022/08/06 00:25:05;;;;;;;6.00;1.40;;;;;;;14.09;75.22;102547.94;4993895;28;20037;-74
2022/08/06 00:27:30;;;;;;;4.97;1.55;;;;;;;14.06;75.29;102553.69;5012120;28;20093;-74
2022/08/06 00:29:56;;;;;;;7.13;1.70;;;;;;;14.04;75.49;102544.88;5011887;28;20030;-74
2022/08/06 00:32:21;;;;;;;7.28;1.40;;;;;;;14.01;75.36;102553.34;5011946;28;20057;-74
2022/08/06 00:34:46;;;;;;;9.80;1.60;;;;;;;14.00;75.55;102565.16;4993834;28;20069;-74
2022/08/06 00:37:11;;;;;;;8.25;1.58;;;;;;;14.00;75.87;102568.72;4994737;28;20022;-74
2022/08/06 00:39:37;;;;;;;8.82;1.90;;;;;;;13.96;75.90;102580.03;5012556;28;20061;-74
2022/08/06 00:42:02;;;;;;;4.80;1.73;;;;;;;13.89;76.44;102578.97;5011289;28;20030;-74
2022/08/06 00:44:28;;;;;;;11.45;1.92;;;;;;;13.87;76.36;102583.69;5013226;28;20470;-74
2022/08/06 00:46:53;;;;;;;6.93;1.92;;;;;;;13.83;76.65;102584.03;5011517;28;20398;-74
2022/08/06 00:49:18;;;;;;;6.63;1.70;;;;;;;13.83;76.58;102586.75;5010965;28;20099;-75
2022/08/06 00:51:44;;;;;;;6.40;1.70;;;;;;;13.82;76.75;102579.63;5012280;28;20401;-74
2022/08/06 00:54:10;;;;;;;9.40;1.92;;;;;;;13.81;77.17;102587.91;5009621;28;20034;-75
2022/08/06 00:56:35;;;;;;;8.55;1.90;;;;;;;13.77;77.02;102581.97;4961995;28;20040;-75
2022/08/06 00:59:01;;;;;;;8.20;1.83;;;;;;;13.75;77.04;102586.69;5010390;28;20075;-75
2022/08/06 01:01:26;;;;;;;8.85;1.90;;;;;;;13.74;77.45;102581.44;5011163;28;20457;-75
2022/08/06 01:03:51;;;;;;;7.90;2.00;;;;;;;13.73;77.44;102586.00;5012520;28;20056;-75
2022/08/06 01:06:17;;;;;;;5.82;1.58;;;;;;;13.75;77.50;102583.16;5012294;28;20482;-75
2022/08/06 01:08:42;;;;;;;5.10;1.38;;;;;;;13.74;77.35;102593.09;4992998;28;20506;-74
2022/08/06 01:11:08;;;;;;;5.00;1.50;;;;;;;13.75;77.13;102593.97;5011260;28;20478;-73
2022/08/06 01:13:33;;;;;;;5.90;2.03;;;;;;;13.71;77.34;102593.41;5009185;28;20083;-74
2022/08/06 01:16:08;;;;;;;7.35;1.75;;;;;;;13.69;77.42;102602.69;5012080;28;20057;-74
2022/08/06 01:18:41;;;;;;;6.75;1.73;;;;;;;13.66;77.47;102600.31;4994159;28;20052;-76
2022/08/06 01:21:17;;;;;;;4.88;1.77;;;;;;;13.66;77.60;102606.56;4994702;28;20327;-75
2022/08/06 01:24:20;;;;;;;7.35;2.03;;;;;;;13.67;77.29;102604.75;4992485;28;20523;-75
2022/08/06 01:26:53;;;;;;;14.82;2.60;;;;;;;13.63;77.38;102596.06;5009240;28;20494;-74
2022/08/06 01:29:22;;;;;;;7.50;1.73;;;;;;;13.63;77.50;102597.94;4993950;28;20106;-75
2022/08/06 01:31:52;;;;;;;8.75;1.75;;;;;;;13.63;76.96;102604.19;4993863;28;20049;-75
2022/08/06 01:34:25;;;;;;;6.47;1.80;;;;;;;13.60;77.53;102599.09;4993825;28;20099;-75
2022/08/06 01:36:55;;;;;;;11.27;2.10;;;;;;;13.60;77.57;102601.81;4996614;28;20450;-74
2022/08/06 01:39:21;;;;;;;5.00;1.55;;;;;;;13.63;77.63;102597.94;4998186;28;20084;-75
2022/08/06 01:41:49;;;;;;;5.38;1.95;;;;;;;13.61;77.30;102604.38;4998018;28;20037;-74
2022/08/06 01:44:20;;;;;;;3.42;1.50;;;;;;;13.60;77.25;102601.81;4995876;28;20029;-74
2022/08/06 01:46:48;;;;;;;9.65;1.77;;;;;;;13.59;77.51;102600.97;4994719;28;20029;-75
2022/08/06 01:49:16;;;;;;;7.07;1.63;;;;;;;13.60;77.40;102599.94;5013423;28;20036;-74
2022/08/06 01:51:42;;;;;;;7.20;1.98;;;;;;;13.61;77.75;102600.78;5009137;28;20458;-74
2022/08/06 01:54:08;;;;;;;8.30;1.73;;;;;;;13.60;77.04;102596.41;4993946;28;20121;-75
2022/08/06 01:56:37;;;;;;;6.50;1.60;;;;;;;13.60;77.53;102599.94;4991413;28;20030;-75
2022/08/06 01:59:04;;;;;;;7.40;2.08;;;;;;;13.63;77.49;102601.50;4991394;28;20022;-74
2022/08/06 02:01:30;;;;;;;6.22;2.08;;;;;;;13.62;77.37;102594.41;5011259;28;20404;-74
2022/08/06 02:03:57;;;;;;;8.80;1.67;;;;;;;13.59;77.35;102595.56;5008975;28;20173;-75
2022/08/06 02:06:28;;;;;;;5.10;1.70;;;;;;;13.58;77.67;102593.00;5010777;28;20080;-74
2022/08/06 02:08:55;;;;;;;9.07;2.08;;;;;;;13.55;77.81;102598.72;5010604;28;20045;-75
2022/08/06 02:11:20;;;;;;;7.85;1.77;;;;;;;13.50;77.85;102592.94;4992367;28;20066;-74
2022/08/06 02:13:46;;;;;;;6.90;1.80;;;;;;;13.47;77.99;102599.53;5010132;28;20172;-74
2022/08/06 02:16:13;;;;;;;7.28;1.80;;;;;;;13.45;78.13;102597.97;4991561;28;20049;-75
2022/08/06 02:18:42;;;;;;;6.03;1.75;;;;;;;13.42;78.16;102590.19;4991743;28;20030;-75
2022/08/06 02:21:09;;;;;;;6.15;2.33;;;;;;;13.40;78.15;102595.75;4992993;28;20033;-75
2022/08/06 02:23:35;;;;;;;5.43;1.83;;;;;;;13.35;78.17;102593.53;4993146;28;20034;-75
2022/08/06 02:26:02;;;;;;;5.80;1.73;;;;;;;13.35;78.79;102593.53;4991254;28;20103;-75
2022/08/06 02:28:29;;;;;;;4.82;1.30;;;;;;;13.34;78.27;102599.09;5010672;28;20022;-75
2022/08/06 02:30:56;;;;;;;5.30;1.27;;;;;;;13.32;78.79;102593.84;4993968;28;20037;-75
2022/08/06 02:33:22;;;;;;;14.73;2.25;;;;;;;13.31;79.00;102594.84;5044094;23;20075;-40
2022/08/06 02:35:50;;;;;;;4.72;1.55;;;;;;;13.26;78.87;102602.56;4985782;28;20464;-43
2022/08/06 02:38:28;;;;;;;3.55;1.38;;;;;;;13.22;78.93;102603.00;5008104;28;20044;-42
2022/08/06 02:40:58;;;;;;;6.72;1.80;;;;;;;13.19;78.95;102601.47;4987902;28;20026;-43
2022/08/06 02:43:30;;;;;;;8.73;1.58;;;;;;;13.16;80.02;102605.34;4986674;28;20034;-43
2022/08/06 02:46:01;;;;;;;8.23;1.75;;;;;;;13.17;80.24;102603.50;4990647;28;20030;-42
2022/08/06 02:48:32;;;;;;;5.68;1.85;;;;;;;13.16;80.28;102607.19;5008315;28;20045;-41
2022/08/06 02:50:57;;;;;;;7.22;1.60;;;;;;;13.14;80.21;102606.50;4991113;28;20025;-42
2022/08/06 02:53:30;;;;;;;8.82;2.03;;;;;;;13.15;80.73;102613.59;5010187;28;20034;-42
2022/08/06 02:55:59;;;;;;;4.93;1.48;;;;;;;13.14;80.78;102615.47;4990083;28;20040;-42
2022/08/06 02:58:33;;;;;;;10.90;1.95;;;;;;;13.14;80.80;102610.06;4991765;28;20517;-42
2022/08/06 03:00:59;;;;;;;6.75;2.28;;;;;;;13.11;80.95;102617.63;5007834;28;20034;-45
2022/08/06 03:03:26;;;;;;;5.90;1.75;;;;;;;13.07;80.96;102618.94;5009747;28;20104;-44
2022/08/06 03:05:52;;;;;;;6.32;1.65;;;;;;;13.04;81.03;102619.25;4989483;28;20034;-45
2022/08/06 03:08:20;;;;;;;10.25;1.88;;;;;;;13.01;80.93;102627.69;4988365;28;20038;-41
2022/08/06 03:10:47;;;;;;;2.47;1.30;;;;;;;12.99;81.51;102624.28;4985996;28;20030;-43
2022/08/06 03:13:13;;;;;;;9.95;2.15;;;;;;;12.97;81.25;102621.72;5008921;28;20139;-44
2022/08/06 03:15:38;;;;;;;6.65;1.60;;;;;;;12.94;81.33;102628.28;4990692;28;20108;-44
2022/08/06 03:18:05;;;;;;;4.97;1.50;;;;;;;12.94;81.39;102622.88;4995113;28;20032;-44
2022/08/06 03:20:32;;;;;;;2.50;1.38;;;;;;;12.94;81.19;102625.56;5012404;28;20076;-42
2022/08/06 03:23:00;;;;;;;4.03;1.13;;;;;;;12.95;81.12;102621.00;4992477;28;20052;-45
2022/08/06 03:25:29;;;;;;;5.15;1.20;;;;;;;12.93;81.14;102621.19;5011484;28;20069;-45
2022/08/06 03:27:55;;;;;;;3.78;1.20;;;;;;;12.93;80.97;102614.94;4994505;28;20110;-43
2022/08/06 03:30:21;;;;;;;4.47;1.77;;;;;;;12.89;80.78;102619.78;4994299;28;20041;-43
2022/08/06 03:32:47;;;;;;;3.88;1.00;;;;;;;12.92;81.48;102624.03;4994100;28;20034;-45
2022/08/06 03:35:14;;;;;;;10.05;1.40;;;;;;;12.92;81.19;102624.03;5005774;28;20050;-44
2022/08/06 03:37:41;;;;;;;5.95;1.52;;;;;;;12.96;81.16;102625.44;5005899;28;20437;-42
2022/08/06 03:40:08;;;;;;;2.28;1.15;;;;;;;12.95;80.66;102613.78;4991547;28;20034;-45
2022/08/06 03:42:34;;;;;;;5.30;1.30;;;;;;;12.94;80.11;102625.56;4975880;28;20050;-42
2022/08/06 03:44:59;;;;;;;5.13;1.88;;;;;;;12.94;80.48;102627.44;4995262;28;20430;-41
2022/08/06 03:47:32;;;;;;;1.67;1.13;;;;;;;12.95;80.51;102631.81;4973788;28;20026;-45
2022/08/06 03:50:10;;;;;;;5.40;1.30;;;;;;;12.94;80.26;102628.28;4958302;28;20062;-47
2022/08/06 03:52:44;;;;;;;3.95;1.15;;;;;;;12.94;80.61;102630.97;4990452;28;20088;-42
2022/08/06 03:55:17;;;;;;;4.68;1.15;;;;;;;12.96;80.24;102628.97;4975376;28;20030;-42
2022/08/06 03:57:48;;;;;;;5.55;1.00;;;;;;;13.02;79.91;102634.78;4976879;28;20397;-44
2022/08/06 04:00:16;;;;;;;5.22;1.00;;;;;;;13.05;79.08;102638.00;4992069;28;20112;-43
2022/08/06 04:02:46;;;;;;;6.32;1.27;;;;;;;13.09;78.67;102646.69;4991026;28;20034;-42
2022/08/06 04:05:14;;;;;;;2.45;1.10;;;;;;;13.09;78.82;102647.53;4973713;28;20474;-43
2022/08/06 04:07:40;;;;;;;3.78;1.20;;;;;;;13.09;78.77;102647.53;4991811;28;20501;-43
2022/08/06 04:10:07;;;;;;;4.95;1.30;;;;;;;13.10;79.00;102651.06;5006862;28;20026;-43
2022/08/06 04:12:32;;;;;;;5.50;1.10;;;;;;;13.09;78.89;102649.38;4992649;28;20405;-43
2022/08/06 04:14:59;;;;;;;5.80;1.00;;;;;;;13.09;78.84;102647.53;4990192;28;20117;-43
2022/08/06 04:17:26;;;;;;;2.53;1.10;;;;;;;13.07;78.80;102649.53;4973036;28;20034;-45
2022/08/06 04:19:52;;;;;;;2.53;1.10;;;;;;;13.06;78.77;102652.38;4990497;28;20038;-46
2022/08/06 04:22:18;;;;;;;6.32;1.15;;;;;;;13.04;79.39;102649.00;4974250;28;20356;-45
2022/08/06 04:24:43;;;;;;;2.88;1.20;;;;;;;13.05;79.87;102648.81;4991826;28;20018;-42
2022/08/06 04:27:10;;;;;;;5.15;1.30;;;;;;;13.07;79.93;102654.09;4991703;28;20072;-43
2022/08/06 04:29:38;;;;;;;8.52;1.02;;;;;;;13.07;79.90;102654.09;4988714;28;20515;-42
2022/08/06 04:32:05;;;;;;;7.20;1.30;;;;;;;13.09;80.16;102658.34;4979007;28;20062;-41
2022/08/06 04:34:32;;;;;;;5.55;1.23;;;;;;;13.09;80.42;102654.78;4991855;28;20054;-46
2022/08/06 04:36:59;;;;;;;4.63;1.20;;;;;;;13.09;80.45;102658.34;4994570;28;20031;-44
2022/08/06 04:39:25;;;;;;;4.53;1.27;;;;;;;13.11;80.65;102655.47;4984347;28;20038;-41
2022/08/06 04:41:51;;;;;;;2.22;1.45;;;;;;;13.15;80.69;102659.56;4993212;28;20081;-43
2022/08/06 04:44:16;;;;;;;3.53;1.15;;;;;;;13.16;80.62;102658.53;4996861;28;20025;-42
2022/08/06 04:46:43;;;;;;;2.05;1.00;;;;;;;13.21;80.94;102655.38;4981853;28;20089;-41
2022/08/06 04:49:09;;;;;;;5.47;1.58;;;;;;;13.29;80.97;102650.09;4978977;28;20061;-42
2022/08/06 04:51:34;;;;;;;3.13;1.10;;;;;;;13.33;80.48;102660.44;4979559;28;20035;-45
2022/08/06 04:54:03;;;;;;;5.78;1.80;;;;;;;13.42;80.60;102661.34;4991499;28;20164;-41
2022/08/06 04:56:29;;;;;;;4.57;1.25;;;;;;;13.53;80.65;102665.66;4993194;28;20380;-42
2022/08/06 04:58:54;;;;;;;2.20;1.10;;;;;;;13.59;80.06;102670.47;4993614;28;20089;-44
2022/08/06 05:01:19;;;;;;;2.30;1.10;;;;;;;13.64;79.57;102668.13;4990507;28;20104;-43
2022/08/06 05:03:45;;;;;;;5.00;1.23;;;;;;;13.69;79.45;102665.81;4973502;28;20113;-47
2022/08/06 05:06:38;;;;;;;1.80;1.08;;;;;;;13.76;79.16;102672.28;4991593;28;20117;-42
2022/08/06 05:09:08;;;;;;;2.47;1.10;;;;;;;13.88;79.03;102677.44;4989816;28;20046;-43
2022/08/06 05:11:40;;;;;;;5.13;1.23;;;;;;;13.97;78.96;102668.34;4971695;28;20090;-44
2022/08/06 05:14:09;;;;;;;3.20;1.05;;;;;;;14.06;78.60;102680.94;4984280;28;20172;-43
2022/08/06 05:16:38;;;;;;;3.08;1.20;;;;;;;14.15;78.27;102671.00;4972838;28;20030;-42
2022/08/06 05:19:08;;;;;;;2.78;1.20;;;;;;;14.26;78.13;102678.84;4973102;28;20037;-44
2022/08/06 05:21:36;;;;;;;1.95;1.10;;;;;;;14.39;78.34;102686.53;4990071;28;20026;-46
2022/08/06 05:24:02;;;;;;;4.72;1.33;;;;;;;14.44;77.68;102687.72;4989129;28;20030;-45
2022/08/06 05:26:28;;;;;;;7.35;1.38;;;;;;;14.45;76.51;102699.41;5006179;28;20034;-41
2022/08/06 05:28:53;;;;;;;3.67;1.23;;;;;;;14.47;76.94;102692.81;4997888;28;20034;-46
2022/08/06 05:31:34;;;;;;;3.95;1.20;;;;;;;14.52;76.44;102699.63;4990589;28;20034;-46
2022/08/06 05:34:00;;;;;;;2.60;0.90;;;;;;;14.62;76.18;102700.38;5004033;28;20077;-44
2022/08/06 05:36:26;;;;;;;4.35;1.23;;;;;;;14.79;76.50;102706.69;4990027;28;20473;-42
2022/08/06 05:38:51;;;;;;;6.03;0.93;;;;;;;14.88;76.11;102705.72;4990359;28;20049;-43
2022/08/06 05:41:16;;;;;;;2.08;0.98;;;;;;;15.03;76.15;102695.91;4976383;28;20029;-41
2022/08/06 05:43:42;;;;;;;4.60;1.10;;;;;;;15.13;75.91;102710.19;4989945;28;20030;-44
2022/08/06 05:46:11;;;;;;;3.08;0.85;;;;;;;15.28;75.89;102706.81;4990277;28;20466;-43
2022/08/06 05:48:40;;;;;;;4.03;0.85;;;;;;;15.45;75.08;102719.38;4971441;28;20493;-44
2022/08/06 05:51:10;;;;;;;5.03;0.80;;;;;;;15.58;73.56;102722.44;4989353;28;20104;-44
2022/08/06 05:53:43;;;;;;;5.28;0.93;;;;;;;15.75;72.63;102717.91;4990641;28;20058;-43
2022/08/06 05:56:16;;;;;;;6.88;1.10;;;;;;;15.92;71.78;102710.56;4972303;28;20390;-43
2022/08/06 05:58:51;;;;;;;3.63;0.70;;;;;;;16.13;70.16;102723.59;4992161;28;20030;-43
2022/08/06 06:01:16;;;;;;;3.55;0.60;;;;;;;16.55;69.55;102724.34;4972455;28;20033;-44
2022/08/06 06:03:43;;;;;;;2.80;0.82;;;;;;;17.05;67.78;102728.56;5004057;28;20030;-45
2022/08/06 06:06:08;;;;;;;7.07;0.93;;;;;;;17.77;65.44;102734.50;4972782;28;20124;-44
2022/08/06 06:08:35;;;;;;;10.60;0.80;;;;;;;18.64;61.89;102730.38;4972849;28;20030;-45
2022/08/06 06:11:02;;;;;;;6.22;0.90;;;;;;;19.72;58.39;102731.41;4994716;28;20104;-46
2022/08/06 06:13:27;;;;;;;4.43;0.80;;;;;;;20.80;54.04;102738.25;5003900;28;20037;-44
2022/08/06 06:16:06;;;;;;;2.15;0.80;;;;;;;21.85;50.73;102746.94;4965226;28;20154;-49
2022/08/06 06:18:39;;;;;;;6.72;1.30;;;;;;;22.94;46.42;102742.69;4971537;28;20030;-45
2022/08/06 06:21:13;;;;;;;3.33;0.63;;;;;;;23.51;44.77;102750.19;4995582;28;20030;-45
2022/08/06 06:24:00;;;;;;;3.28;0.73;;;;;;;24.02;43.35;102749.19;4989014;28;20034;-45
2022/08/06 06:26:25;;;;;;;;;;;;;;;24.30;41.96;102755.03;4984162;28;20092;-49
2022/08/06 06:29:25;;;;;;;2.90;0.80;;;;;;;24.50;41.14;102754.00;4992649;28;19996;-45
2022/08/06 06:32:25;;;;;;;4.22;0.55;;;;;;;24.96;40.20;102756.19;4989782;28;20101;-42
2022/08/06 06:35:02;;;;;;;4.82;0.90;;;;;;;25.01;39.39;102755.47;4977722;28;20042;-46
2022/08/06 06:37:54;;;;;;;1.63;0.60;;;;;;;25.57;38.20;102764.47;4990367;28;20444;-44
2022/08/06 06:40:38;;;;;;;1.58;0.60;;;;;;;25.99;37.28;102762.53;4970526;28;20031;-47
2022/08/06 06:43:14;;;;;;;4.47;0.98;;;;;;;26.31;36.72;102759.41;4993211;28;20445;-49
2022/08/06 06:45:52;;;;;;;6.25;0.90;;;;;;;26.28;37.00;102770.94;4972903;28;20455;-46
2022/08/06 06:48:30;;;;;;;2.35;0.90;;;;;;;26.23;36.47;102765.28;4971223;28;20468;-44
2022/08/06 06:51:01;;;;;;;4.55;0.80;;;;;;;26.36;36.29;102767.78;4989197;28;20414;-47
2022/08/06 06:53:29;;;;;;;4.35;1.00;;;;;;;27.17;34.73;102765.09;4994150;28;20053;-47
2022/08/06 06:55:56;;;;;;;8.88;0.98;;;;;;;27.46;34.33;102765.94;4992211;28;20077;-44
2022/08/06 06:58:55;;;;;;;3.13;0.70;;;;;;;27.50;33.89;102771.78;4993732;28;20026;-50
2022/08/06 07:01:21;;;;;;;5.20;0.80;;;;;;;28.08;33.17;102765.03;4991892;28;20031;-46
2022/08/06 07:03:48;;;;;;;4.77;0.67;;;;;;;27.83;33.71;102767.38;4993588;28;20037;-48
2022/08/06 07:06:15;;;;;;;;;;;;;;;28.05;32.80;102767.47;4992138;28;20030;-45
2022/08/06 07:08:44;;;;;;;;;;;;;;;28.02;33.08;102775.19;4976327;28;19924;-47
2022/08/06 07:11:11;;;;;;;2.50;0.75;;;;;;;28.10;32.71;102770.34;4991430;28;19972;-45
2022/08/06 07:13:37;;;;;;;4.53;0.80;;;;;;;27.27;33.49;102776.34;4975312;28;20437;-45
2022/08/06 07:16:05;;;;;;;4.70;0.90;;;;;;;27.06;34.71;102777.00;4992697;28;20038;-45
2022/08/06 07:18:31;;;;;;;3.50;1.13;;;;;;;27.16;34.59;102777.22;4973048;28;20895;-47
2022/08/06 07:20:56;;;;;;;3.47;0.73;;;;;;;27.40;33.05;102777.97;4985597;28;20458;-46
2022/08/06 07:23:23;;;;;;;5.60;1.00;;;;;;;27.48;34.05;102785.03;4975297;28;20157;-46
2022/08/06 07:25:49;;;;;;;2.38;0.75;;;;;;;27.83;31.91;102784.81;4992101;28;20024;-49
2022/08/06 07:28:15;;;;;;;5.28;0.90;;;;;;;27.19;32.53;102798.88;5007159;28;20052;-48
2022/08/06 07:30:41;;;;;;;4.60;1.00;;;;;;;26.50;34.00;102791.28;4986717;28;20035;-45
2022/08/06 07:33:09;;;;;;;3.65;0.93;;;;;;;25.63;35.43;102786.41;4974166;28;20022;-46
2022/08/06 07:35:35;;;;;;;6.30;0.90;;;;;;;24.16;37.96;102786.47;4992228;28;20394;-43
2022/08/06 07:38:02;;;;;;;2.75;0.88;;;;;;;24.23;39.39;102792.78;4971500;28;20076;-45
2022/08/06 07:40:39;;;;;;;2.97;0.88;;;;;;;25.26;37.17;102796.72;4971328;28;20387;-46
2022/08/06 07:43:08;;;;;;;3.58;0.70;;;;;;;26.27;35.92;102791.31;4991832;28;20490;-46
2022/08/06 07:45:34;;;;;;;3.22;0.80;;;;;;;26.83;34.35;102798.13;4992823;28;20030;-46
2022/08/06 07:48:01;;;;;;;2.67;0.82;;;;;;;27.17;33.34;102806.56;4989283;28;20052;-45
2022/08/06 07:50:27;;;;;;;4.72;1.10;;;;;;;26.97;33.94;102795.09;4984873;28;20034;-43
2022/08/06 07:52:54;;;;;;;4.07;0.70;;;;;;;27.05;34.44;102800.22;4981501;28;20085;-44
2022/08/06 07:55:21;;;;;;;3.22;0.90;;;;;;;27.08;34.63;102789.50;4960500;28;20026;-43
2022/08/06 07:57:47;;;;;;;4.47;0.90;;;;;;;28.08;32.67;102792.72;4994931;28;20034;-43
2022/08/06 08:00:14;;;;;;;4.57;0.90;;;;;;;28.40;31.40;102797.63;4965938;28;20030;-43
2022/08/06 08:02:40;;;;;;;3.55;0.90;;;;;;;29.74;29.73;102800.91;4965695;28;20614;-46
2022/08/06 08:07:50;;;;;;;4.50;0.90;;;;;;;29.85;28.84;102802.66;4980570;28;20029;-44
2022/08/06 08:10:16;;;;;;;4.07;0.87;;;;;;;29.89;28.87;102812.16;4966442;28;20035;-42
2022/08/06 08:12:43;;;;;;;5.97;0.80;;;;;;;30.45;27.82;102808.97;4958801;28;20116;-45
2022/08/06 08:15:09;;;;;;;3.30;0.93;;;;;;;30.91;26.42;102811.13;4957037;28;20495;-45
2022/08/06 08:17:35;;;;;;;1.57;0.60;;;;;;;31.14;26.54;102807.88;4987606;28;20109;-45
2022/08/06 08:20:05;;;;;;;3.23;1.00;;;;;;;31.02;26.79;102810.09;4977894;28;20038;-46
2022/08/06 08:22:31;;;;;;;2.95;0.85;;;;;;;30.83;27.57;102802.25;4988833;28;20034;-49
2022/08/06 08:24:56;;;;;;;6.57;1.00;;;;;;;31.12;27.15;102812.88;4993814;28;20413;-44
2022/08/06 08:27:21;;;;;;;3.23;0.80;;;;;;;31.80;25.73;102806.34;4991704;28;20219;-47
2022/08/06 08:29:47;;;;;;;2.27;0.70;;;;;;;31.55;25.85;102819.13;4990742;28;20432;-44
2022/08/06 08:32:12;;;;;;;7.87;1.27;;;;;;;31.51;26.30;102818.00;4991055;28;20109;-44
2022/08/06 08:34:38;;;;;;;5.47;1.33;;;;;;;30.63;27.87;102818.78;4988352;28;20054;-45
2022/08/06 08:37:03;;;;;;;4.37;0.93;;;;;;;30.84;27.77;102814.19;4992057;28;20030;-44
2022/08/06 08:39:30;;;;;;;5.07;0.90;;;;;;;31.99;25.33;102813.03;4992228;28;20038;-46
2022/08/06 08:42:00;;;;;;;8.98;0.90;;;;;;;31.93;24.64;102814.97;4991869;28;20046;-44
2022/08/06 08:44:27;;;;;;;4.68;0.93;;;;;;;30.92;25.76;102818.38;4991984;28;20126;-47
2022/08/06 08:46:57;;;;;;;5.40;1.10;;;;;;;30.32;26.01;102824.16;4992214;28;20030;-48
2022/08/06 08:49:37;;;;;;;5.30;0.90;;;;;;;29.72;27.35;102820.59;5007372;28;20037;-45
2022/08/06 08:52:04;;;;;;;7.60;1.20;;;;;;;29.63;27.60;102819.38;4991339;28;20026;-44
2022/08/06 08:54:32;;;;;;;4.45;1.10;;;;;;;29.32;28.69;102810.75;4992069;28;20049;-44
2022/08/06 08:56:58;;;;;;;4.32;0.73;;;;;;;29.92;27.44;102816.34;4974219;28;20113;-43
2022/08/06 08:59:23;;;;;;;8.40;1.00;;;;;;;29.85;27.46;102818.50;4974797;28;20125;-46
2022/08/06 09:01:49;;;;;;;2.03;0.97;;;;;;;30.70;26.15;102816.59;4973921;28;20068;-44
2022/08/06 09:04:14;;;;;;;4.65;1.30;;;;;;;31.02;26.31;102816.47;4974756;28;20081;-43
2022/08/06 09:06:40;;;;;;;4.73;0.90;;;;;;;31.85;25.13;102820.25;4991489;28;20038;-41
2022/08/06 09:09:06;;;;;;;4.70;1.17;;;;;;;32.51;23.74;102823.00;4972529;28;20121;-44
2022/08/06 09:11:32;;;;;;;2.33;0.70;;;;;;;31.96;24.76;102824.72;4973619;28;20034;-43
2022/08/06 09:14:05;;;;;;;2.60;0.60;;;;;;;31.17;25.67;102824.03;4974146;28;20358;-44
2022/08/06 09:16:32;;;;;;;4.63;0.80;;;;;;;32.04;24.79;102826.94;4991899;28;20030;-45
2022/08/06 09:18:59;;;;;;;1.90;0.80;;;;;;;30.94;24.73;102818.94;4993948;28;20026;-46
2022/08/06 09:21:24;;;;;;;3.35;0.98;;;;;;;31.46;24.09;102829.13;4992266;28;20041;-45
2022/08/06 09:23:49;;;;;;;2.53;0.67;;;;;;;31.85;23.19;102823.03;4974390;28;20019;-45
2022/08/06 09:26:15;;;;;;;3.80;0.87;;;;;;;32.63;22.17;102819.91;4991011;28;20088;-44
2022/08/06 09:28:42;;;;;;;5.97;0.70;;;;;;;32.08;23.16;102824.47;4974091;28;20026;-42
2022/08/06 09:31:11;;;;;;;4.30;0.70;;;;;;;32.27;22.96;102824.69;4997315;28;20029;-45
2022/08/06 09:33:52;;;;;;;2.90;0.80;;;;;;;31.25;24.70;102820.72;4971807;28;20101;-46
2022/08/06 09:36:18;;;;;;;3.60;0.75;;;;;;;31.90;25.23;102825.81;4998174;28;20046;-41
2022/08/06 09:38:47;;;;;;;3.30;0.80;;;;;;;31.87;24.93;102821.66;4991176;28;20421;-43
2022/08/06 09:41:13;;;;;;;5.90;1.00;;;;;;;32.69;23.21;102820.72;4990791;28;20085;-43
2022/08/06 09:43:39;;;;;;;5.00;0.80;;;;;;;32.42;24.33;102818.28;4990321;28;20038;-44
2022/08/06 09:46:06;;;;;;;3.85;0.75;;;;;;;31.56;24.38;102826.34;4991135;28;20042;-46
2022/08/06 09:48:32;;;;;;;4.32;0.70;;;;;;;31.90;24.89;102821.09;4974134;28;20433;-45
2022/08/06 09:50:58;;;;;;;4.47;0.70;;;;;;;31.63;25.33;102814.97;4974618;28;20479;-43
2022/08/06 09:53:24;;;;;;;3.30;0.73;;;;;;;30.66;25.74;102823.78;4973468;28;20030;-44
2022/08/06 09:55:50;;;;;;;5.37;0.77;;;;;;;30.38;26.28;102817.50;4989260;28;20388;-43
2022/08/06 09:58:34;;;;;;;5.32;0.93;;;;;;;29.38;26.82;102817.19;4972196;28;20058;-43
2022/08/06 10:01:12;;;;;;;5.63;1.33;;;;;;;28.39;28.08;102821.72;4987859;28;20025;-43
2022/08/06 10:03:39;;;;;;;3.05;0.60;;;;;;;28.31;28.65;102815.78;4993894;28;20117;-43
2022/08/06 10:06:07;;;;;;;4.97;0.75;;;;;;;28.48;27.18;102816.59;4973226;28;20404;-42
2022/08/06 10:08:32;;;;;;;2.63;0.77;;;;;;;29.02;28.02;102827.03;4988466;28;20065;-42
2022/08/06 10:11:02;;;;;;;4.28;0.93;;;;;;;30.06;26.52;102819.50;4988268;28;20038;-41
2022/08/06 10:13:28;;;;;;;4.15;0.82;;;;;;;30.52;25.80;102825.41;4992404;28;20054;-44
2022/08/06 10:15:57;;;;;;;3.35;1.27;;;;;;;29.52;26.74;102829.56;4990825;28;20026;-42
2022/08/06 10:18:46;;;;;;;2.85;0.80;;;;;;;28.48;28.11;102827.69;4991041;28;20196;-41
2022/08/06 10:21:17;;;;;;;1.85;0.70;;;;;;;27.67;29.37;102822.44;4978743;28;20031;-41
2022/08/06 10:23:46;;;;;;;1.70;0.75;;;;;;;28.24;29.08;102827.84;4975763;28;20153;-40
2022/08/06 10:26:13;;;;;;;2.63;0.60;;;;;;;29.44;27.49;102832.78;4997475;28;20073;-42
2022/08/06 10:28:41;;;;;;;3.42;0.60;;;;;;;29.85;25.58;102835.97;4997420;28;20034;-40
2022/08/06 10:31:09;;;;;;;3.40;0.73;;;;;;;28.91;27.73;102830.75;5008548;28;20029;-41
2022/08/06 10:34:00;;;;;;;5.65;1.05;;;;;;;29.28;27.54;102833.72;5016778;28;20029;-40
2022/08/06 10:36:29;;;;;;;7.05;0.88;;;;;;;29.95;26.04;102838.84;4979216;28;20397;-40
2022/08/06 10:38:55;;;;;;;6.03;0.93;;;;;;;29.81;25.02;102840.41;5010735;28;20026;-44
2022/08/06 10:41:21;;;;;;;1.00;0.57;;;;;;;29.90;25.97;102837.97;4997558;28;20128;-43
2022/08/06 10:43:47;;;;;;;4.43;0.77;;;;;;;30.33;25.45;102831.41;4996775;28;20022;-42
2022/08/06 10:46:15;;;;;;;2.03;0.70;;;;;;;30.54;25.68;102837.06;4979075;28;20030;-45
2022/08/06 10:48:42;;;;;;;4.75;0.80;;;;;;;30.75;25.29;102844.41;5011501;28;20737;-45
2022/08/06 10:51:08;;;;;;;;;;;;;;;31.24;23.81;102846.03;4997286;28;20033;-43
2022/08/06 10:53:36;;;;;;;5.63;0.85;;;;;;;30.97;24.70;102846.22;4996639;28;19955;-42
2022/08/06 10:56:06;;;;;;;5.35;0.85;;;;;;;31.04;23.90;102841.22;5009399;28;20035;-44
2022/08/06 10:58:33;;;;;;;4.35;1.00;;;;;;;30.40;25.69;102831.97;4995915;28;20441;-46
2022/08/06 11:00:59;;;;;;;;;;;;;;;30.01;25.90;102839.72;4997214;28;20019;-44
2022/08/06 11:03:43;;;;;;;3.93;0.83;;;;;;;29.44;26.36;102840.28;4978900;28;19928;-45
2022/08/06 11:06:22;;;;;;;1.50;0.55;;;;;;;28.83;26.95;102832.88;4993281;28;20090;-42
2022/08/06 11:09:39;;;;;;;2.90;0.80;;;;;;;29.26;26.86;102828.44;4976558;28;20046;-42
2022/08/06 11:12:32;;;;;;;4.97;0.82;;;;;;;30.61;25.25;102832.09;4963393;28;20046;-43
2022/08/06 11:14:58;;;;;;;3.03;0.73;;;;;;;30.59;24.90;102834.31;4992689;28;20113;-41
2022/08/06 11:17:24;;;;;;;1.50;0.60;;;;;;;30.98;24.03;102825.63;4976607;28;20347;-42
2022/08/06 11:19:49;;;;;;;3.28;0.90;;;;;;;31.44;23.45;102829.41;4993614;28;20023;-43
2022/08/06 11:22:31;;;;;;;3.60;0.63;;;;;;;30.87;24.14;102832.28;4995092;28;20083;-40
2022/08/06 11:24:57;;;;;;;5.60;0.73;;;;;;;30.36;24.68;102825.31;4997811;28;20034;-42
2022/08/06 11:27:48;;;;;;;5.37;0.70;;;;;;;30.51;24.70;102826.50;4997976;28;20118;-42
2022/08/06 11:30:15;;;;;;;7.63;0.68;;;;;;;30.25;23.60;102826.31;4997918;28;20031;-43
2022/08/06 11:32:44;;;;;;;;;;;;;;;30.26;24.81;102822.47;4980680;28;20462;-44
2022/08/06 11:35:31;;;;;;;2.33;0.85;;;;;;;29.89;25.12;102823.25;4992340;28;19917;-44
2022/08/06 11:37:57;;;;;;;4.40;1.70;;;;;;;30.11;25.04;102827.88;4994695;28;20490;-43